• Join FlightAware (Why Join?)
  • Login
  • US Flag 
Rudolph Flight #1: Arrived! 
02:24PM EST


 

Airport Tracker/Info


-or-


 

Live Flight TrackerFlight Track Log ✈ AWI3833 ✈ 21-Jun-2013 ✈ KSYR - KPHL

Flight Track Log - Related Links

Times and Time Zones

All times are in EDT time to prevent confusion due to time zone crossing. See the AWI3833 flight status page for this flight to view local times or setup timezone preferences in your user account.

Time Position Orientation Groundspeed Altitude Reporting Facility
EDT Latitude Longitude Course Direction KTS MPH feet Rate Location/Type
04:48PM 43.0606 -76.0408 206° Southwest 216 249 4,600  Level Boston Center
04:49PM 42.8820 -76.3643 223° Southwest  Level FlightAware Approximate
04:49PM 43.0172 -76.0922 221° Southwest 228 262 6,100  Level Boston Center
04:50PM 42.8092 -76.4553 223° Southwest  Level FlightAware Approximate
04:50PM 42.9547 -76.1539 216° Southwest 284 327 8,100  Level Boston Center
04:51PM 42.7251 -76.5250 210° Southwest  Level FlightAware Approximate
04:52PM 42.6499 -76.6000 200° South  Level FlightAware Approximate
04:52PM 42.8103 -76.3033 217° Southwest 333 383 11,000  Level New York Center
04:53PM 42.5610 -76.6557 216° Southwest  Level FlightAware Approximate
04:53PM 42.7361 -76.3758 216° Southwest 338 389 11,000  Level New York Center
04:54PM 42.6706 -76.4436 217° Southwest 320 368 11,500 480 Climbing New York Center
04:55PM 42.6006 -76.5136 216° Southwest 315 362 12,000 240 Climbing New York Center
04:56PM 42.5350 -76.5808 217° Southwest 310 357 12,000  Level New York Center
04:57PM 42.4714 -76.6456 217° Southwest 305 351 12,000  Level New York Center
04:58PM 42.4056 -76.7125 217° Southwest 305 351 12,000  Level New York Center
04:59PM 42.3378 -76.7794 216° Southwest 305 351 12,000  Level New York Center
05:00PM 42.2719 -76.8461 217° Southwest 305 351 12,000  Level New York Center
05:02PM 42.1915 -76.9190 214° Southwest  Level FlightAware Approximate
05:02PM 42.1400 -76.9794 131° Southeast 305 351 12,000  Level New York Center
05:03PM 42.0633 -76.9753 178° South 276 318 12,000  Level New York Center
05:04PM 42.0019 -76.8744 129° Southeast 257 296 12,000  Level New York Center
05:05PM 41.9461 -76.7828 129° Southeast 285 328 12,000  Level New York Center
05:06PM 41.8864 -76.6883 130° Southeast 296 341 12,000  Level New York Center
05:07PM 41.8286 -76.5914 129° Southeast 317 365 12,000  Level New York Center
05:08PM 41.7689 -76.4942 129° Southeast 332 382 12,000  Level New York Center
05:09PM 41.8035 -76.5554 131° Southeast  Level FlightAware Approximate
05:09PM 41.7089 -76.3975 130° Southeast 338 389 12,000  Level New York Center
05:10PM 41.6508 -76.3036 130° Southeast 333 383 12,000  Level New York Center
05:11PM 41.5747 -76.2392 148° Southeast 333 383 12,000  Level New York Center
05:12PM 41.5061 -76.1919 153° Southeast 319 367 12,000  Level New York Center
05:13PM 41.4294 -76.1361 151° Southeast 319 367 12,000  Level New York Center
05:14PM 41.3428 -76.0711 151° Southeast 319 367 12,000 -60 Level New York Center
05:15PM 41.2639 -76.0153 152° Southeast 319 367 11,900 -540 Descending New York Center
05:16PM 41.1933 -75.9628 151° Southeast 319 367 11,000 -960 Descending New York Center
05:17PM 41.1144 -75.9072 152° Southeast 319 367 10,000 -540 Descending New York Center
05:18PM 41.0297 -75.8458 151° Southeast 319 367 10,000  Level New York Center
05:19PM 40.9569 -75.7936 152° Southeast 313 360 10,000  Level New York Center
05:20PM 40.8922 -75.7478 152° Southeast 299 344 10,000  Level New York Center
05:21PM 40.8194 -75.6958 152° Southeast 299 344 10,000  Level New York Center
05:22PM 40.7383 -75.6378 152° Southeast 299 344 10,000  Level New York Center
05:23PM 40.6633 -75.5861 152° Southeast 299 344 10,000  Level New York Center
05:24PM 40.5967 -75.5350 150° Southeast 299 344 10,000  Level New York Center
05:25PM 40.5114 -75.4772 153° Southeast 299 344 10,000  Level New York Center
05:26PM 40.4364 -75.4256 152° Southeast 299 344 10,000 -300 Level New York Center
05:27PM 40.3592 -75.3794 156° South 299 344 9,500 -780 Descending New York Center
05:28PM 40.2919 -75.3397 156° South 299 344 8,500 -1,020 Descending New York Center
05:29PM 40.2183 -75.2994 157° South 288 331 7,500 -1,020 Descending New York Center
05:30PM 40.1428 -75.2592 158° South 294 338 6,500 -780 Descending New York Center
05:31PM 40.0694 -75.2167 156° South 277 319 6,000 -240 Descending New York Center
05:33PM 40.0333 -75.1333 119° Southeast 218 251 6,000 -600 Level Philadelphia TRACON
05:34PM 40.0000 -75.0667 123° Southeast 228 262 4,800 -1,020 Descending Philadelphia TRACON
05:35PM 39.9500 -75.0167 143° Southeast 202 232 4,000 -840 Descending Philadelphia TRACON